»·PEaware :: N5212K L52-L88

N5212K :: L52-L88

FLIGHT INFORMATION

Flight Status: Arrived
Operator: Privately registered:
United States
More flights under this callsign
Pilot: Anonymous 17746 (17746)
Aircraft: CESSNA 172 SKYHAWK
(C172)
More flights by this aircraft type
Origin: L52 Oceano Co
United States
Destination: L88 New Cuyama
United States
More flights between these airports :: More routes between these airports
Route: DCT
File this flight plan on PilotEdge
Remarks: none
Altitude:
(Current/Filed)
7,500ft
Speed:
(Current/Filed)
120kts
Departed: 06-Jan-18 04:36 PM
Arrived: 06-Jan-18 05:07 PM
Distance/Time
Traveled:
47nm/0:30
Distance/Time
To Go:
Arrived

Flight Plot

Page will automatically refresh every two minutes.


Map Options




Map Legend


Flown Route
Filed Route
Departure Airport
Arrival Airport
Navaid (VOR, NDB)
Fix

Horizontal Profiles

Position Reports

Time Latitude Longitude Heading Altitude Ground
Speed
06-Jan-18 16:26 35.103552 -120.624283 214 18ft 0kts
06-Jan-18 16:27 35.103552 -120.624283 214 18ft 0kts
06-Jan-18 16:32 35.103552 -120.624283 214 18ft 0kts
06-Jan-18 16:33 35.103552 -120.624284 214 18ft 0kts
06-Jan-18 16:34 35.103552 -120.624284 214 18ft 0kts
06-Jan-18 16:35 35.103540 -120.624296 187 18ft 0kts
06-Jan-18 16:36 35.103459 -120.624836 286 18ft 2kts
06-Jan-18 16:37 35.103376 -120.625261 192 18ft 0kts
06-Jan-18 16:38 35.103376 -120.625261 192 18ft 0kts
06-Jan-18 16:39 35.103374 -120.625261 181 18ft 0kts
06-Jan-18 16:40 35.103374 -120.625261 181 18ft 0kts
06-Jan-18 16:41 35.103374 -120.625261 180 18ft 0kts
06-Jan-18 16:42 35.100419 -120.620017 110 18ft 56kts
06-Jan-18 16:43 35.099352 -120.600304 77 645ft 77kts
06-Jan-18 16:44 35.102143 -120.574163 119 1231ft 97kts
06-Jan-18 16:45 35.092565 -120.549095 106 2242ft 64kts
06-Jan-18 16:46 35.088048 -120.527823 102 2940ft 64kts
06-Jan-18 16:47 35.082435 -120.508570 118 3527ft 69kts
06-Jan-18 16:48 35.079197 -120.479609 96 3937ft 101kts
06-Jan-18 16:49 35.073887 -120.445224 100 4435ft 104kts
06-Jan-18 16:50 35.068099 -120.412061 101 5057ft 94kts
06-Jan-18 16:51 35.062710 -120.381121 100 5654ft 92kts
06-Jan-18 16:52 35.057473 -120.350770 100 6203ft 93kts
06-Jan-18 16:53 35.052113 -120.319894 101 6696ft 95kts
06-Jan-18 16:54 35.046539 -120.288443 102 7173ft 96kts
06-Jan-18 16:55 35.040634 -120.255653 101 7574ft 100kts
06-Jan-18 16:56 35.031350 -120.217992 107 7500ft 123kts
06-Jan-18 16:57 35.018899 -120.179061 113 7499ft 124kts
06-Jan-18 16:58 35.004870 -120.140752 113 7499ft 121kts
06-Jan-18 16:59 34.992495 -120.102734 110 7499ft 120kts
06-Jan-18 17:00 34.980594 -120.064454 110 7499ft 120kts
06-Jan-18 17:01 34.968846 -120.026375 110 7499ft 120kts
06-Jan-18 17:02 34.957159 -119.988198 110 7499ft 120kts
06-Jan-18 17:03 34.946995 -119.949254 106 7499ft 120kts
06-Jan-18 17:04 34.937133 -119.910308 106 7499ft 120kts
06-Jan-18 17:05 34.927647 -119.871221 104 7499ft 120kts
06-Jan-18 17:06 34.919175 -119.831610 103 7499ft 120kts
06-Jan-18 17:07 34.911292 -119.792307 103 7018ft 131kts
06-Jan-18 17:08 34.903500 -119.744034 99 5230ft 156kts
06-Jan-18 17:09 34.897894 -119.692522 74 3231ft 155kts
06-Jan-18 17:10 34.920998 -119.694486 313 2886ft 85kts
06-Jan-18 17:11 34.933478 -119.714749 15 2538ft 73kts
06-Jan-18 17:12 34.945952 -119.699607 126 2289ft 68kts
06-Jan-18 17:13 34.941382 -119.688875 272 2207ft 0kts
06-Jan-18 17:14 34.942674 -119.690552 184 2207ft 8kts
06-Jan-18 17:15 34.942643 -119.690559 189 2207ft 0kts
06-Jan-18 17:16 34.942643 -119.690559 192 2207ft 0kts
06-Jan-18 17:17 34.942643 -119.690559 192 2207ft 0kts
06-Jan-18 17:18 34.942643 -119.690559 192 2207ft 0kts
06-Jan-18 17:19 34.942643 -119.690559 192 2207ft 0kts
06-Jan-18 17:20 34.942643 -119.690559 192 2207ft 0kts

Navigation Log

Ident Type
Flight plan parsing failed, navigation log unavailable